To NAV CANADA Home Page Login to a new session Search on AWWS site Feedback and Comments Disclaimer Vers la page française équivalente Tips FAQ What's new on the site To the Forecasts and Observations / NOTAM section To "File a Flight Plan" website Publications and other links Update of the User's profile FIC Telephone Numbers My Weather Data Folder Route Weather Data Regional Weather Data Local Weather Data To the Forecasts and Observations / NOTAM section
Request Generated 08/04/2015 at 19:53:53 UTC . Weather information available at that time is displayed.

METAR/TAF

MONTREAL/ST-HUBERT/QC    (show WxCam)

METAR CYHU 041900Z AUTO 24018G25KT 9SM CLR 25/13 A2976 RMK SLP078
DENSITY ALT 1400FT=
METAR CYHU 041800Z AUTO 22012G23KT 9SM CLR 25/14 A2977 RMK SLP080
DENSITY ALT 1300FT=
METAR CYHU 041700Z AUTO 23017G26KT 9SM BKN100 24/14 A2977 RMK SLP081
DENSITY ALT 1300FT=

TAF CYHU 041738Z 0418/0518 23012G22KT P6SM SCT040 TEMPO 0418/0503
P6SM -SHRA BKN040
FM050300 22008KT P6SM BKN050 TEMPO 0506/0511 P6SM -SHRA
FM051300 26010KT P6SM BKN015
FM051700 26012G22KT P6SM BKN030
RMK FCST BASED ON AUTO OBS. NXT FCST BY 050000Z=
Your time UTC time
Weather data provided by Environment Canada and NAV CANADA